createdAt,value
2019-03-22T00:01:46.141Z,8.40
2019-03-22T00:04:14.688Z,8.30
2019-03-22T00:06:44.059Z,8.30
2019-03-22T00:09:12.428Z,8.40
2019-03-22T00:11:40.603Z,8.30
2019-03-22T00:14:08.987Z,8.40
2019-03-22T00:16:37.266Z,8.40
2019-03-22T00:19:05.854Z,8.40
2019-03-22T00:21:34.224Z,8.60
2019-03-22T00:24:02.491Z,8.50
2019-03-22T00:26:32.546Z,8.50
2019-03-22T00:29:01.173Z,8.50
2019-03-22T00:31:29.539Z,8.60
2019-03-22T00:33:58.139Z,8.60
2019-03-22T00:36:26.446Z,8.60
2019-03-22T00:38:56.077Z,8.60
2019-03-22T00:41:24.448Z,8.60
2019-03-22T00:43:52.980Z,8.60
2019-03-22T00:46:21.528Z,8.60
2019-03-22T00:48:50.067Z,8.60
2019-03-22T00:51:18.529Z,8.70
2019-03-22T00:53:46.890Z,8.70
2019-03-22T00:56:15.237Z,8.70
2019-03-22T00:58:43.760Z,8.70
2019-03-22T01:01:12.092Z,8.70
2019-03-22T01:03:40.483Z,8.70
2019-03-22T01:06:08.723Z,8.70
2019-03-22T01:08:37.127Z,8.70
2019-03-22T01:11:05.446Z,8.70
2019-03-22T01:13:33.636Z,8.70
2019-03-22T01:16:02.080Z,8.70
2019-03-22T01:18:30.574Z,8.70
2019-03-22T01:20:58.795Z,8.70
2019-03-22T01:26:27.181Z,8.70
2019-03-22T01:28:55.505Z,8.60
2019-03-22T01:31:23.902Z,8.60
2019-03-22T01:33:52.221Z,8.60
2019-03-22T01:36:20.667Z,8.60
2019-03-22T01:38:49.313Z,8.70
2019-03-22T01:41:17.717Z,8.60
2019-03-22T01:43:45.948Z,8.70
2019-03-22T01:46:14.138Z,8.70
2019-03-22T01:48:42.670Z,8.70
2019-03-22T01:51:11.092Z,8.70
2019-03-22T01:53:39.563Z,8.60
2019-03-22T01:56:07.980Z,8.60
2019-03-22T01:58:36.495Z,8.70
2019-03-22T02:01:04.946Z,8.60
2019-03-22T02:03:33.270Z,8.60
2019-03-22T02:06:01.595Z,8.70
2019-03-22T02:08:29.865Z,8.70
2019-03-22T02:10:57.969Z,8.70
2019-03-22T02:13:26.253Z,8.70
2019-03-22T02:15:54.432Z,8.70
2019-03-22T02:18:22.689Z,8.70
2019-03-22T02:20:50.911Z,8.70
2019-03-22T02:23:19.248Z,8.70
2019-03-22T02:25:47.426Z,8.70
2019-03-22T02:28:15.593Z,8.70
2019-03-22T02:30:43.923Z,8.70
2019-03-22T02:33:12.073Z,8.70
2019-03-22T02:35:40.335Z,8.70
2019-03-22T02:38:08.713Z,8.70
2019-03-22T02:40:37.047Z,8.70
2019-03-22T02:43:05.496Z,8.70
2019-03-22T02:45:33.745Z,8.70
2019-03-22T02:48:02.255Z,8.70
2019-03-22T02:50:30.529Z,8.70
2019-03-22T02:52:58.773Z,8.70
2019-03-22T02:55:27.575Z,8.70
2019-03-22T02:57:55.845Z,8.60
2019-03-22T03:00:24.108Z,8.70
2019-03-22T03:02:53.228Z,8.70
2019-03-22T03:05:22.507Z,8.70
2019-03-22T03:07:51.113Z,8.70
2019-03-22T03:10:19.408Z,8.70
2019-03-22T03:12:47.969Z,8.70
2019-03-22T03:15:16.993Z,8.70
2019-03-22T03:17:46.462Z,8.70
2019-03-22T03:20:14.980Z,8.70
2019-03-22T03:22:43.321Z,8.70
2019-03-22T03:25:12.934Z,8.70
2019-03-22T03:27:41.312Z,8.70
2019-03-22T03:30:11.984Z,8.70
2019-03-22T03:32:40.393Z,8.70
2019-03-22T03:35:09.415Z,8.60
2019-03-22T03:37:37.673Z,8.70
2019-03-22T03:40:07.668Z,8.70
2019-03-22T03:42:35.984Z,8.70
2019-03-22T03:45:06.613Z,8.70
2019-03-22T03:47:34.765Z,8.70
2019-03-22T03:50:03.786Z,8.70
2019-03-22T03:52:31.931Z,8.70
2019-03-22T03:55:00.127Z,8.70
2019-03-22T03:57:28.345Z,8.70
2019-03-22T03:59:56.866Z,8.70
2019-03-22T04:02:25.067Z,8.70
2019-03-22T04:04:53.238Z,8.80
2019-03-22T04:07:21.405Z,8.80
2019-03-22T04:09:49.707Z,8.80
2019-03-22T04:12:17.851Z,8.80
2019-03-22T04:14:46.042Z,8.80
2019-03-22T04:17:14.279Z,8.80
2019-03-22T04:19:42.466Z,9.00
2019-03-22T04:22:10.683Z,8.80
2019-03-22T04:24:38.935Z,8.70
2019-03-22T04:27:07.248Z,8.70
2019-03-22T04:29:35.424Z,8.70
2019-03-22T04:32:03.769Z,8.70
2019-03-22T04:34:31.951Z,8.70
2019-03-22T04:37:00.211Z,8.70
2019-03-22T04:39:28.489Z,8.60
2019-03-22T04:41:56.828Z,8.70
2019-03-22T04:44:25.044Z,8.80
2019-03-22T04:46:54.306Z,8.60
2019-03-22T04:49:23.644Z,8.70
2019-03-22T04:51:52.681Z,8.70
2019-03-22T04:54:21.843Z,8.60
2019-03-22T04:56:51.666Z,8.70
2019-03-22T04:59:20.341Z,8.70
2019-03-22T05:01:51.600Z,8.80
2019-03-22T05:04:20.471Z,8.80
2019-03-22T05:06:51.117Z,8.80
2019-03-22T05:09:23.023Z,8.80
2019-03-22T05:11:52.651Z,8.90
2019-03-22T05:14:22.989Z,8.90
2019-03-22T05:16:53.491Z,9.00
2019-03-22T05:19:24.725Z,9.00
2019-03-22T05:21:53.375Z,9.10
2019-03-22T05:24:24.516Z,9.20
2019-03-22T05:26:55.404Z,9.20
2019-03-22T05:29:30.447Z,9.20
2019-03-22T05:32:07.067Z,9.20
2019-03-22T05:34:35.335Z,9.10
2019-03-22T05:37:04.301Z,9.10
2019-03-22T05:39:32.654Z,9.10
2019-03-22T05:42:01.198Z,9.20
2019-03-22T05:44:29.332Z,9.20
2019-03-22T05:46:57.984Z,9.30
2019-03-22T05:49:26.668Z,9.40
2019-03-22T05:51:55.072Z,9.40
2019-03-22T05:54:23.271Z,9.50
2019-03-22T05:56:51.666Z,9.60
2019-03-22T05:59:19.871Z,9.70
2019-03-22T06:01:48.468Z,9.80
2019-03-22T06:04:16.757Z,10.00
2019-03-22T06:06:45.149Z,10.10
2019-03-22T06:09:13.740Z,10.30
2019-03-22T06:11:41.906Z,10.60
2019-03-22T06:14:10.087Z,10.40
2019-03-22T06:16:38.240Z,10.60
2019-03-22T06:19:06.529Z,10.70
2019-03-22T06:21:34.789Z,10.80
2019-03-22T06:24:03.411Z,10.90
2019-03-22T06:26:31.582Z,11.00
2019-03-22T06:29:00.052Z,11.10
2019-03-22T06:31:28.319Z,11.20
2019-03-22T06:33:56.642Z,11.30
2019-03-22T06:36:24.844Z,11.40
2019-03-22T06:38:53.251Z,11.50
2019-03-22T06:41:21.525Z,11.60
2019-03-22T06:43:49.913Z,11.60
2019-03-22T06:46:19.337Z,11.70
2019-03-22T06:48:47.503Z,11.80
2019-03-22T06:51:15.795Z,11.90
2019-03-22T06:53:44.083Z,12.00
2019-03-22T06:56:12.334Z,12.10
2019-03-22T06:58:40.533Z,12.20
2019-03-22T07:01:08.754Z,12.20
2019-03-22T07:03:37.024Z,12.30
2019-03-22T07:06:06.410Z,12.40
2019-03-22T07:08:34.695Z,12.60
2019-03-22T07:11:03.248Z,12.60
2019-03-22T07:13:31.649Z,12.80
2019-03-22T07:16:00.017Z,12.90
2019-03-22T07:18:28.338Z,12.80
2019-03-22T07:20:56.710Z,12.80
2019-03-22T07:23:26.177Z,12.80
2019-03-22T07:25:57.132Z,12.80
2019-03-22T07:28:26.118Z,12.80
2019-03-22T07:30:54.372Z,12.90
2019-03-22T07:33:22.903Z,13.00
2019-03-22T07:35:51.327Z,13.10
2019-03-22T07:38:20.481Z,13.10
2019-03-22T07:40:48.703Z,13.10
2019-03-22T07:43:16.891Z,13.10
2019-03-22T07:45:45.190Z,13.10
2019-03-22T07:48:13.441Z,13.10
2019-03-22T07:50:41.765Z,13.10
2019-03-22T07:53:09.916Z,13.10
2019-03-22T07:55:38.378Z,13.10
2019-03-22T07:58:06.532Z,13.20
2019-03-22T08:00:35.154Z,13.20
2019-03-22T08:03:03.777Z,13.20
2019-03-22T08:05:32.024Z,13.10
2019-03-22T08:08:00.275Z,13.10
2019-03-22T08:10:28.722Z,13.00
2019-03-22T08:12:56.979Z,13.00
2019-03-22T08:15:30.642Z,12.90
2019-03-22T08:17:59.585Z,12.90
2019-03-22T08:20:28.654Z,12.80
2019-03-22T08:22:56.930Z,12.80
2019-03-22T08:25:26.181Z,12.80
2019-03-22T08:27:54.551Z,12.80
2019-03-22T08:30:22.783Z,12.80
2019-03-22T08:32:51.087Z,12.80
2019-03-22T08:35:19.406Z,12.60
2019-03-22T08:37:52.370Z,12.80
2019-03-22T08:40:18.052Z,12.80
2019-03-22T08:42:46.257Z,12.80
2019-03-22T08:45:14.772Z,12.80
2019-03-22T08:47:43.469Z,12.80
2019-03-22T08:50:12.522Z,12.70
2019-03-22T08:52:40.984Z,12.80
2019-03-22T08:55:09.417Z,12.80
2019-03-22T08:57:37.578Z,12.90
2019-03-22T09:00:07.272Z,13.10
2019-03-22T09:02:35.805Z,13.30
2019-03-22T09:05:05.152Z,13.40
2019-03-22T09:07:33.372Z,13.60
2019-03-22T09:10:08.101Z,13.70
2019-03-22T09:12:36.698Z,13.80
2019-03-22T09:15:06.014Z,14.00
2019-03-22T09:17:35.606Z,14.00
2019-03-22T09:20:04.927Z,14.10
2019-03-22T09:22:33.416Z,14.20
2019-03-22T09:25:02.039Z,14.30
2019-03-22T09:27:30.378Z,14.40
2019-03-22T09:29:58.877Z,14.40
2019-03-22T09:32:27.205Z,14.40
2019-03-22T09:34:55.647Z,14.40
2019-03-22T09:37:24.184Z,14.50
2019-03-22T09:39:52.673Z,14.50
2019-03-22T09:42:21.247Z,14.70
2019-03-22T09:44:49.846Z,14.80
2019-03-22T09:47:18.081Z,14.90
2019-03-22T09:49:46.496Z,15.00
2019-03-22T09:52:15.075Z,15.00
2019-03-22T09:54:43.383Z,15.10
2019-03-22T09:57:11.769Z,15.10
2019-03-22T09:59:39.968Z,15.10
2019-03-22T10:02:08.435Z,15.20
2019-03-22T10:04:37.023Z,15.20
2019-03-22T10:07:06.791Z,15.20
2019-03-22T10:09:35.117Z,15.30
2019-03-22T10:12:04.243Z,15.70
2019-03-22T10:14:32.609Z,16.20
2019-03-22T10:17:00.980Z,17.00
2019-03-22T10:19:29.566Z,17.70
2019-03-22T10:21:58.019Z,18.10
2019-03-22T10:24:26.425Z,18.40
2019-03-22T10:26:54.981Z,18.50
2019-03-22T10:29:23.382Z,18.70
2019-03-22T10:31:53.352Z,18.90
2019-03-22T10:34:21.607Z,19.40
2019-03-22T10:36:50.332Z,19.50
2019-03-22T10:39:18.660Z,19.30
2019-03-22T10:41:46.988Z,19.20
2019-03-22T10:44:15.297Z,19.10
2019-03-22T10:46:43.573Z,19.10
2019-03-22T10:49:12.001Z,19.00
2019-03-22T10:51:40.260Z,18.90
2019-03-22T10:54:08.907Z,18.70
2019-03-22T10:56:37.185Z,18.60
2019-03-22T10:59:05.913Z,18.90
2019-03-22T11:01:46.856Z,19.30
2019-03-22T11:06:33.801Z,19.70
2019-03-22T11:09:05.662Z,19.80
2019-03-22T11:11:34.267Z,20.30
2019-03-22T11:14:02.563Z,20.90
2019-03-22T11:16:30.973Z,22.70
2019-03-22T11:18:59.241Z,25.50
2019-03-22T11:21:27.718Z,28.00
2019-03-22T11:23:56.078Z,29.70
2019-03-22T11:26:24.380Z,29.70
2019-03-22T11:28:52.900Z,28.60
2019-03-22T11:31:28.326Z,27.30
2019-03-22T11:33:52.151Z,26.10
2019-03-22T11:36:20.666Z,25.00
2019-03-22T11:38:49.081Z,24.20
2019-03-22T11:41:17.624Z,23.50
2019-03-22T11:43:46.166Z,22.60
2019-03-22T11:46:14.640Z,21.70
2019-03-22T11:48:42.993Z,20.90
2019-03-22T11:51:11.543Z,20.30
2019-03-22T11:53:39.825Z,19.70
2019-03-22T11:56:09.477Z,19.10
2019-03-22T11:58:38.947Z,18.60
2019-03-22T12:01:07.381Z,18.10
2019-03-22T12:03:35.762Z,17.80
2019-03-22T12:06:04.798Z,17.60
2019-03-22T12:08:33.165Z,17.40
2019-03-22T12:11:01.404Z,17.20
2019-03-22T12:13:29.661Z,17.00
2019-03-22T12:15:58.597Z,16.90
2019-03-22T12:18:27.618Z,16.90
2019-03-22T12:20:56.645Z,16.90
2019-03-22T12:23:25.127Z,16.90
2019-03-22T12:25:54.290Z,16.90
2019-03-22T12:28:22.637Z,16.90
2019-03-22T12:30:51.114Z,16.90
2019-03-22T12:33:20.090Z,17.00
2019-03-22T12:35:48.281Z,17.40
2019-03-22T12:38:16.661Z,17.70
2019-03-22T12:40:44.907Z,17.70
2019-03-22T12:43:13.176Z,17.60
2019-03-22T12:45:41.538Z,17.50
2019-03-22T12:48:09.835Z,17.30
2019-03-22T12:50:38.107Z,17.20
2019-03-22T12:53:06.698Z,17.10
2019-03-22T12:55:35.041Z,16.90
2019-03-22T12:58:04.380Z,16.80
2019-03-22T13:00:32.645Z,16.70
2019-03-22T13:03:01.001Z,16.60
2019-03-22T13:05:29.546Z,16.40
2019-03-22T13:07:57.998Z,16.30
2019-03-22T13:10:26.561Z,16.20
2019-03-22T13:12:55.386Z,16.20
2019-03-22T13:15:23.884Z,16.10
2019-03-22T13:17:52.358Z,16.00
2019-03-22T13:20:20.941Z,15.90
2019-03-22T13:22:50.147Z,15.80
2019-03-22T13:25:21.125Z,15.60
2019-03-22T13:27:49.089Z,15.50
2019-03-22T13:30:34.938Z,15.40
2019-03-22T13:33:03.691Z,15.40
2019-03-22T13:35:31.950Z,15.40
2019-03-22T13:38:01.291Z,15.40
2019-03-22T13:40:29.692Z,15.30
2019-03-22T13:42:58.044Z,15.30
2019-03-22T13:45:26.564Z,15.10
2019-03-22T13:47:54.701Z,15.10
2019-03-22T13:50:23.045Z,15.10
2019-03-22T13:52:51.313Z,15.10
2019-03-22T13:55:19.451Z,15.00
2019-03-22T13:57:47.710Z,15.00
2019-03-22T14:00:16.393Z,14.90
2019-03-22T14:02:44.651Z,14.90
2019-03-22T14:05:12.942Z,14.80
2019-03-22T14:07:41.527Z,14.70
2019-03-22T14:10:17.526Z,14.60
2019-03-22T14:12:45.697Z,14.50
2019-03-22T14:15:14.088Z,14.50
2019-03-22T14:17:42.375Z,14.40
2019-03-22T14:20:11.695Z,14.40
2019-03-22T14:22:41.111Z,14.50
2019-03-22T14:25:09.562Z,14.30
2019-03-22T14:27:38.075Z,14.30
2019-03-22T14:30:06.924Z,14.30
2019-03-22T14:32:35.377Z,14.40
2019-03-22T14:35:05.733Z,14.50
2019-03-22T14:37:33.981Z,14.40
2019-03-22T14:40:02.236Z,14.40
2019-03-22T14:42:30.846Z,14.30
2019-03-22T14:44:59.238Z,14.20
2019-03-22T14:47:27.705Z,14.20
2019-03-22T14:49:55.840Z,14.10
2019-03-22T14:52:25.151Z,14.10
2019-03-22T14:54:53.523Z,14.00
2019-03-22T14:57:21.848Z,13.90
2019-03-22T14:59:58.548Z,13.90
2019-03-22T15:02:20.210Z,13.80
2019-03-22T15:04:48.967Z,13.80
2019-03-22T15:07:20.094Z,13.70
2019-03-22T15:09:47.504Z,13.70
2019-03-22T15:12:15.678Z,13.70
2019-03-22T15:14:51.909Z,13.70
2019-03-22T15:17:29.401Z,13.70
2019-03-22T15:20:16.101Z,13.70
2019-03-22T15:23:03.961Z,13.70
2019-03-22T15:25:53.308Z,13.60
2019-03-22T15:28:40.366Z,13.50
2019-03-22T15:31:27.344Z,13.40
2019-03-22T15:34:31.202Z,13.40
2019-03-22T15:37:18.351Z,13.30
2019-03-22T15:40:15.547Z,13.20
2019-03-22T15:42:45.751Z,13.10
2019-03-22T15:45:14.691Z,13.10
2019-03-22T15:47:43.179Z,13.10
2019-03-22T15:50:14.681Z,13.00
2019-03-22T15:52:42.975Z,12.90
2019-03-22T15:55:11.567Z,12.90
2019-03-22T15:57:39.971Z,12.80
2019-03-22T16:00:12.308Z,12.80
2019-03-22T16:02:43.593Z,12.70
2019-03-22T16:05:13.170Z,12.70
2019-03-22T16:07:42.301Z,12.60
2019-03-22T16:10:11.645Z,12.60
2019-03-22T16:12:43.824Z,12.60
2019-03-22T16:15:13.091Z,12.50
2019-03-22T16:17:46.029Z,12.50
2019-03-22T16:20:15.586Z,12.50
2019-03-22T16:22:44.131Z,12.50
2019-03-22T16:25:13.405Z,12.40
2019-03-22T16:27:42.645Z,12.40
2019-03-22T16:30:11.654Z,12.40
2019-03-22T16:32:42.085Z,12.40
2019-03-22T16:35:11.247Z,12.40
2019-03-22T16:37:39.478Z,12.30
2019-03-22T16:40:09.411Z,12.30
2019-03-22T16:42:38.534Z,12.30
2019-03-22T16:45:08.800Z,12.30
2019-03-22T16:47:37.171Z,12.30
2019-03-22T16:50:22.070Z,12.30
2019-03-22T16:52:50.340Z,12.20
2019-03-22T16:55:18.851Z,12.20
2019-03-22T16:58:24.591Z,12.20
2019-03-22T17:00:52.957Z,12.10
2019-03-22T17:03:21.442Z,12.10
2019-03-22T17:05:49.800Z,12.10
2019-03-22T17:08:18.129Z,12.00
2019-03-22T17:10:46.648Z,12.00
2019-03-22T17:13:15.439Z,12.10
2019-03-22T17:15:43.644Z,11.90
2019-03-22T17:18:12.103Z,12.00
2019-03-22T17:20:40.529Z,12.00
2019-03-22T17:23:08.817Z,11.90
2019-03-22T17:25:37.362Z,11.90
2019-03-22T17:28:05.650Z,11.90
2019-03-22T17:30:34.198Z,11.90
2019-03-22T17:33:02.759Z,11.90
2019-03-22T17:35:31.037Z,11.80
2019-03-22T17:37:59.202Z,11.80
2019-03-22T17:40:27.484Z,11.80
2019-03-22T17:42:55.843Z,11.80
2019-03-22T17:45:24.001Z,11.80
2019-03-22T17:47:53.071Z,11.70
2019-03-22T17:50:25.385Z,11.70
2019-03-22T17:52:53.838Z,11.70
2019-03-22T17:55:23.211Z,11.60
2019-03-22T17:57:51.441Z,11.60
2019-03-22T18:00:23.078Z,11.60
2019-03-22T18:02:52.287Z,11.60
2019-03-22T18:05:22.537Z,11.60
2019-03-22T18:07:51.225Z,11.60
2019-03-22T18:10:20.089Z,11.50
2019-03-22T18:12:48.526Z,11.50
2019-03-22T18:15:17.186Z,11.50
2019-03-22T18:17:45.687Z,11.50
2019-03-22T18:20:14.612Z,11.50
2019-03-22T18:22:45.910Z,11.50
2019-03-22T18:25:15.774Z,11.50
2019-03-22T18:27:44.589Z,11.50
2019-03-22T18:30:14.098Z,11.50
2019-03-22T18:32:42.782Z,11.50
2019-03-22T18:35:14.809Z,11.40
2019-03-22T18:37:43.430Z,11.50
2019-03-22T18:40:12.388Z,11.50
2019-03-22T18:42:43.551Z,11.50
2019-03-22T18:45:15.084Z,11.50
2019-03-22T18:47:44.145Z,11.50
2019-03-22T18:50:12.918Z,11.50
2019-03-22T18:52:42.482Z,11.50
2019-03-22T18:55:11.118Z,11.50
2019-03-22T18:57:40.431Z,11.50
2019-03-22T19:00:09.222Z,11.50
2019-03-22T19:02:38.722Z,11.50
2019-03-22T19:05:08.375Z,11.50
2019-03-22T19:07:36.812Z,11.50
2019-03-22T19:10:10.187Z,11.40
2019-03-22T19:12:41.611Z,11.40
2019-03-22T19:15:10.785Z,11.40
2019-03-22T19:17:39.191Z,11.40
2019-03-22T19:20:08.635Z,11.30
2019-03-22T19:22:38.064Z,11.30
2019-03-22T19:25:06.966Z,11.30
2019-03-22T19:27:35.481Z,11.30
2019-03-22T19:30:06.468Z,11.30
2019-03-22T19:32:35.281Z,11.20
2019-03-22T19:35:04.992Z,11.20
2019-03-22T19:37:44.702Z,11.20
2019-03-22T19:40:11.465Z,11.20
2019-03-22T19:42:40.734Z,11.10
2019-03-22T19:45:09.898Z,11.10
2019-03-22T19:47:39.061Z,11.00
2019-03-22T19:50:07.763Z,10.90
2019-03-22T19:52:37.060Z,10.80
2019-03-22T19:55:06.980Z,10.70
2019-03-22T19:57:35.912Z,10.70
2019-03-22T20:00:06.170Z,10.60
2019-03-22T20:02:35.888Z,10.60
2019-03-22T20:05:05.631Z,10.60
2019-03-22T20:07:34.193Z,10.50
2019-03-22T20:10:02.616Z,10.50
2019-03-22T20:12:31.544Z,10.50
2019-03-22T20:14:59.948Z,10.60
2019-03-22T20:17:28.205Z,10.50
2019-03-22T20:19:56.639Z,10.50
2019-03-22T20:22:25.802Z,10.60
2019-03-22T20:24:54.183Z,10.50
2019-03-22T20:27:22.972Z,10.50
2019-03-22T20:29:51.385Z,10.50
2019-03-22T20:32:20.486Z,10.40
2019-03-22T20:34:48.590Z,10.40
2019-03-22T20:37:16.912Z,10.40
2019-03-22T20:39:45.577Z,10.40
2019-03-22T20:42:14.021Z,10.40
2019-03-22T20:44:42.405Z,10.40
2019-03-22T20:47:10.694Z,10.30
2019-03-22T20:49:38.996Z,10.20
2019-03-22T20:52:07.216Z,10.20
2019-03-22T20:54:35.502Z,10.20
2019-03-22T20:57:04.843Z,10.20
2019-03-22T20:59:33.301Z,10.30
2019-03-22T21:02:01.676Z,10.20
2019-03-22T21:04:29.855Z,10.20
2019-03-22T21:06:59.828Z,10.20
2019-03-22T21:09:29.148Z,10.20
2019-03-22T21:11:57.383Z,10.30
2019-03-22T21:14:26.265Z,10.20
2019-03-22T21:16:54.476Z,10.20
2019-03-22T21:19:22.805Z,10.20
2019-03-22T21:21:51.955Z,10.20
2019-03-22T21:24:20.331Z,10.10
2019-03-22T21:26:48.831Z,10.10
2019-03-22T21:29:17.145Z,9.90
2019-03-22T21:31:45.449Z,9.90
2019-03-22T21:34:13.760Z,9.80
2019-03-22T21:36:42.167Z,9.80
2019-03-22T21:39:10.484Z,9.80
2019-03-22T21:41:39.303Z,9.70
2019-03-22T21:44:07.888Z,9.80
2019-03-22T21:46:36.131Z,9.70
2019-03-22T21:49:04.890Z,9.80
2019-03-22T21:51:33.085Z,9.80
2019-03-22T21:54:01.473Z,9.80
2019-03-22T21:56:29.890Z,9.70
2019-03-22T21:58:58.318Z,9.70
2019-03-22T22:01:26.902Z,9.70
2019-03-22T22:03:55.113Z,9.70
2019-03-22T22:06:23.424Z,9.70
2019-03-22T22:08:51.600Z,9.60
2019-03-22T22:11:19.979Z,9.50
2019-03-22T22:13:48.393Z,9.40
2019-03-22T22:16:16.564Z,9.30
2019-03-22T22:18:45.356Z,9.30
2019-03-22T22:21:14.549Z,9.30
2019-03-22T22:23:42.837Z,9.20
2019-03-22T22:26:11.932Z,9.20
2019-03-22T22:28:40.369Z,9.10
2019-03-22T22:31:08.632Z,9.10
2019-03-22T22:33:37.844Z,9.00
2019-03-22T22:36:06.946Z,9.00
2019-03-22T22:38:36.196Z,8.90
2019-03-22T22:41:05.388Z,8.90
2019-03-22T22:43:34.004Z,8.80
2019-03-22T22:46:02.165Z,8.70
2019-03-22T22:48:30.446Z,8.60
2019-03-22T22:50:58.616Z,8.50
2019-03-22T22:53:26.877Z,8.60
2019-03-22T22:55:55.122Z,8.30
2019-03-22T22:58:23.524Z,8.20
2019-03-22T23:00:51.768Z,8.10
2019-03-22T23:03:22.073Z,8.00
2019-03-22T23:05:50.622Z,7.90
2019-03-22T23:08:19.122Z,7.80
2019-03-22T23:10:47.610Z,7.60
2019-03-22T23:13:15.877Z,7.50
2019-03-22T23:15:44.030Z,7.40
2019-03-22T23:18:12.401Z,7.30
2019-03-22T23:20:41.799Z,7.20
2019-03-22T23:23:09.939Z,7.00
2019-03-22T23:25:38.155Z,6.90
2019-03-22T23:28:06.387Z,6.80
2019-03-22T23:30:34.803Z,6.90
2019-03-22T23:33:03.185Z,6.60
2019-03-22T23:35:31.836Z,6.50
2019-03-22T23:38:02.877Z,6.40
2019-03-22T23:40:31.369Z,6.30
2019-03-22T23:42:59.667Z,6.30
2019-03-22T23:45:27.987Z,6.30
2019-03-22T23:47:56.147Z,6.20
2019-03-22T23:50:24.425Z,6.10
2019-03-22T23:52:52.819Z,6.10
2019-03-22T23:55:21.182Z,6.00
2019-03-22T23:57:49.328Z,5.90
